createdAt,value
2022-12-11T00:01:18.888Z,24.50
2022-12-11T00:03:46.449Z,27.48
2022-12-11T00:06:15.632Z,25.85
2022-12-11T00:08:42.876Z,29.42
2022-12-11T00:11:12.614Z,28.10
2022-12-11T00:13:39.455Z,23.58
2022-12-11T00:16:06.271Z,25.70
2022-12-11T00:18:33.057Z,19.73
2022-12-11T00:21:01.644Z,20.48
2022-12-11T00:23:28.891Z,20.27
2022-12-11T00:25:55.711Z,17.98
2022-12-11T00:28:22.657Z,19.90
2022-12-11T00:30:49.777Z,20.98
2022-12-11T00:33:17.326Z,22.08
2022-12-11T00:35:46.034Z,19.35
2022-12-11T00:38:21.584Z,17.58
2022-12-11T00:40:49.143Z,16.08
2022-12-11T00:43:16.267Z,14.57
2022-12-11T00:45:44.927Z,17.40
2022-12-11T00:48:12.513Z,16.33
2022-12-11T00:50:40.140Z,11.38
2022-12-11T00:53:07.542Z,15.27
2022-12-11T00:55:39.229Z,17.48
2022-12-11T00:58:05.971Z,12.02
2022-12-11T01:00:32.649Z,12.23
2022-12-11T01:02:59.467Z,17.48
2022-12-11T01:05:26.237Z,19.23
2022-12-11T01:07:52.959Z,17.63
2022-12-11T01:10:25.940Z,16.42
2022-12-11T01:13:01.653Z,15.07
2022-12-11T01:15:31.603Z,15.55
2022-12-11T01:17:58.621Z,15.07
2022-12-11T01:20:26.308Z,13.23
2022-12-11T01:22:58.206Z,18.58
2022-12-11T01:25:25.922Z,17.10
2022-12-11T01:27:54.004Z,16.50
2022-12-11T01:30:22.721Z,15.18
2022-12-11T01:32:49.815Z,18.40
2022-12-11T01:35:17.481Z,25.98
2022-12-11T01:37:44.225Z,23.08
2022-12-11T01:40:14.306Z,22.15
2022-12-11T01:42:40.981Z,26.67
2022-12-11T01:45:27.233Z,24.75
2022-12-11T01:48:01.181Z,20.98
2022-12-11T01:50:29.491Z,20.00
2022-12-11T01:52:56.501Z,17.08
2022-12-11T01:55:23.825Z,19.25
2022-12-11T01:57:52.123Z,25.60
2022-12-11T02:00:20.257Z,19.45
2022-12-11T02:02:47.088Z,22.38
2022-12-11T02:05:13.940Z,21.33
2022-12-11T02:07:50.667Z,20.95
2022-12-11T02:10:17.646Z,22.80
2022-12-11T02:13:02.839Z,18.90
2022-12-11T02:15:41.612Z,14.02
2022-12-11T02:18:36.734Z,16.15
2022-12-11T02:21:08.966Z,15.55
2022-12-11T02:24:00.758Z,16.67
2022-12-11T02:26:45.675Z,17.83
2022-12-11T02:29:19.833Z,14.63
2022-12-11T02:32:25.765Z,16.02
2022-12-11T02:35:07.764Z,20.23
2022-12-11T02:37:38.658Z,17.45
2022-12-11T02:40:09.196Z,20.23
2022-12-11T02:42:37.880Z,15.43
2022-12-11T02:45:06.582Z,16.50
2022-12-11T02:47:34.084Z,19.65
2022-12-11T02:50:03.417Z,16.33
2022-12-11T02:52:32.594Z,14.93
2022-12-11T02:55:01.197Z,14.43
2022-12-11T02:57:30.113Z,19.83
2022-12-11T02:59:56.967Z,16.98
2022-12-11T03:02:23.870Z,18.35
2022-12-11T03:04:50.696Z,18.42
2022-12-11T03:07:25.948Z,18.52
2022-12-11T03:09:53.299Z,12.80
2022-12-11T03:12:29.714Z,14.02
2022-12-11T03:15:00.708Z,17.83
2022-12-11T03:17:52.398Z,16.58
2022-12-11T03:20:25.178Z,16.27
2022-12-11T03:23:21.142Z,16.10
2022-12-11T03:25:59.397Z,11.90
2022-12-11T03:28:42.229Z,15.82
2022-12-11T03:31:13.962Z,14.38
2022-12-11T03:33:43.682Z,15.18
2022-12-11T03:36:16.555Z,16.73
2022-12-11T03:38:58.226Z,15.27
2022-12-11T03:41:27.659Z,15.20
2022-12-11T03:43:58.481Z,15.65
2022-12-11T03:46:35.389Z,17.15
2022-12-11T03:49:09.425Z,14.30
2022-12-11T03:51:37.200Z,16.27
2022-12-11T03:54:04.113Z,16.15
2022-12-11T03:56:33.756Z,13.73
2022-12-11T03:59:00.484Z,11.82
2022-12-11T04:01:27.748Z,13.73
2022-12-11T04:03:54.543Z,12.93
2022-12-11T04:06:21.347Z,15.30
2022-12-11T04:08:48.031Z,17.90
2022-12-11T04:11:33.580Z,15.07
2022-12-11T04:14:26.903Z,18.33
2022-12-11T04:16:54.000Z,11.63
2022-12-11T04:19:40.331Z,12.55
2022-12-11T04:22:25.799Z,19.02
2022-12-11T04:24:52.695Z,10.85
2022-12-11T04:27:39.347Z,17.05
2022-12-11T04:30:10.910Z,15.68
2022-12-11T04:32:37.636Z,11.00
2022-12-11T04:35:06.491Z,14.68
2022-12-11T04:37:33.312Z,18.10
2022-12-11T04:39:59.969Z,13.07
2022-12-11T04:42:26.667Z,14.60
2022-12-11T04:44:53.310Z,15.88
2022-12-11T04:47:20.058Z,15.52
2022-12-11T04:49:46.893Z,11.90
2022-12-11T04:52:13.629Z,13.93
2022-12-11T04:54:40.374Z,14.38
2022-12-11T04:57:07.026Z,18.58
2022-12-11T04:59:33.966Z,13.70
2022-12-11T05:02:00.974Z,16.40
2022-12-11T05:04:32.646Z,14.05
2022-12-11T05:06:59.957Z,14.20
2022-12-11T05:09:27.370Z,15.68
2022-12-11T05:11:54.640Z,17.95
2022-12-11T05:14:21.656Z,15.00
2022-12-11T05:16:48.417Z,14.20
2022-12-11T05:19:15.278Z,15.23
2022-12-11T05:21:42.107Z,16.52
2022-12-11T05:24:08.966Z,14.52
2022-12-11T05:26:35.732Z,15.02
2022-12-11T05:29:02.454Z,14.02
2022-12-11T05:31:29.320Z,18.83
2022-12-11T05:33:56.055Z,13.00
2022-12-11T05:36:28.559Z,17.30
2022-12-11T05:38:56.981Z,14.02
2022-12-11T05:41:25.588Z,13.02
2022-12-11T05:43:52.434Z,15.70
2022-12-11T05:46:22.318Z,15.05
2022-12-11T05:48:51.675Z,13.25
2022-12-11T05:51:19.609Z,11.93
2022-12-11T05:53:48.044Z,16.77
2022-12-11T05:56:19.033Z,14.90
2022-12-11T05:58:46.999Z,15.68
2022-12-11T06:01:17.748Z,15.88
2022-12-11T06:03:44.763Z,13.32
2022-12-11T06:06:12.065Z,14.20
2022-12-11T06:08:38.964Z,11.82
2022-12-11T06:11:07.019Z,13.95
2022-12-11T06:13:34.054Z,12.57
2022-12-11T06:16:05.853Z,14.35
2022-12-11T06:18:39.400Z,15.55
2022-12-11T06:21:16.113Z,18.65
2022-12-11T06:23:43.573Z,20.98
2022-12-11T06:26:11.601Z,17.23
2022-12-11T06:28:38.767Z,15.63
2022-12-11T06:31:05.854Z,12.73
2022-12-11T06:33:32.965Z,18.02
2022-12-11T06:36:04.639Z,24.45
2022-12-11T06:38:31.557Z,27.30
2022-12-11T06:40:59.812Z,21.63
2022-12-11T06:43:26.827Z,25.00
2022-12-11T06:45:55.096Z,20.45
2022-12-11T06:48:23.618Z,20.65
2022-12-11T06:50:50.341Z,23.90
2022-12-11T06:53:17.260Z,27.17
2022-12-11T06:55:44.105Z,26.85
2022-12-11T06:58:11.704Z,20.92
2022-12-11T07:00:39.026Z,25.50
2022-12-11T07:03:06.294Z,27.95
2022-12-11T07:05:33.638Z,26.67
2022-12-11T07:08:00.397Z,19.35
2022-12-11T07:10:27.390Z,21.98
2022-12-11T07:12:54.549Z,28.52
2022-12-11T07:15:21.589Z,27.38
2022-12-11T07:17:48.314Z,21.17
2022-12-11T07:20:15.053Z,24.50
2022-12-11T07:22:46.425Z,29.38
2022-12-11T07:25:14.472Z,33.55
2022-12-11T07:27:41.765Z,22.35
2022-12-11T07:30:09.543Z,29.23
2022-12-11T07:32:36.313Z,34.40
2022-12-11T07:35:03.360Z,34.42
2022-12-11T07:37:30.040Z,23.05
2022-12-11T07:39:56.785Z,29.30
2022-12-11T07:42:23.748Z,33.35
2022-12-11T07:44:50.470Z,28.45
2022-12-11T07:47:17.147Z,37.50
2022-12-11T07:49:43.826Z,33.60
2022-12-11T07:52:10.576Z,25.60
2022-12-11T07:54:37.369Z,29.73
2022-12-11T07:57:04.899Z,34.10
2022-12-11T07:59:33.013Z,27.98
2022-12-11T08:01:59.854Z,40.05
2022-12-11T08:04:26.663Z,38.30
2022-12-11T08:06:53.385Z,34.25
2022-12-11T08:09:22.660Z,24.83
2022-12-11T08:11:50.576Z,30.08
2022-12-11T08:14:17.735Z,39.05
2022-12-11T08:16:44.739Z,24.48
2022-12-11T08:19:13.001Z,18.48
2022-12-11T08:21:40.282Z,19.90
2022-12-11T08:24:08.305Z,21.42
2022-12-11T08:26:35.137Z,21.80
2022-12-11T08:29:02.793Z,22.90
2022-12-11T08:31:29.919Z,20.10
2022-12-11T08:33:57.549Z,22.23
2022-12-11T08:36:25.415Z,23.27
2022-12-11T08:38:55.273Z,19.73
2022-12-11T08:41:24.838Z,20.90
2022-12-11T08:43:54.899Z,21.75
2022-12-11T08:46:23.951Z,27.75
2022-12-11T08:48:50.726Z,23.00
2022-12-11T08:51:22.650Z,21.50
2022-12-11T08:53:50.055Z,19.58
2022-12-11T08:56:19.843Z,15.82
2022-12-11T08:58:47.561Z,16.05
2022-12-11T09:01:18.061Z,21.67
2022-12-11T09:03:44.924Z,29.98
2022-12-11T09:06:14.578Z,13.10
2022-12-11T09:08:46.011Z,17.55
2022-12-11T09:11:19.930Z,16.65
2022-12-11T09:13:46.816Z,13.52
2022-12-11T09:16:16.344Z,13.98
2022-12-11T09:18:45.147Z,14.80
2022-12-11T09:21:14.087Z,15.70
2022-12-11T09:23:41.145Z,13.82
2022-12-11T09:26:13.006Z,14.32
2022-12-11T09:28:45.761Z,17.70
2022-12-11T09:31:19.657Z,19.10
2022-12-11T09:33:46.791Z,17.52
2022-12-11T09:36:13.686Z,18.02
2022-12-11T09:38:40.430Z,18.15
2022-12-11T09:41:36.943Z,16.25
2022-12-11T09:44:15.733Z,19.42
2022-12-11T09:46:43.501Z,12.23
2022-12-11T09:49:23.342Z,20.83
2022-12-11T09:52:07.417Z,15.07
2022-12-11T09:54:34.410Z,20.55
2022-12-11T09:57:11.732Z,18.48
2022-12-11T10:00:05.682Z,16.83
2022-12-11T10:03:09.535Z,14.60
2022-12-11T10:05:41.774Z,15.38
2022-12-11T10:08:30.521Z,12.93
2022-12-11T10:11:19.994Z,16.38
2022-12-11T10:14:06.018Z,19.27
2022-12-11T10:16:38.965Z,17.90
2022-12-11T10:19:05.896Z,23.27
2022-12-11T10:21:43.029Z,17.05
2022-12-11T10:25:09.466Z,23.63
2022-12-11T10:27:28.487Z,22.00
2022-12-11T10:30:18.428Z,17.88
2022-12-11T10:32:54.140Z,22.67
2022-12-11T10:35:27.044Z,18.67
2022-12-11T10:38:12.155Z,14.95
2022-12-11T10:40:45.123Z,30.17
2022-12-11T10:43:12.617Z,26.15
2022-12-11T10:45:39.479Z,24.75
2022-12-11T10:48:10.502Z,24.63
2022-12-11T10:50:38.386Z,25.35
2022-12-11T10:53:05.820Z,31.65
2022-12-11T10:55:47.462Z,23.40
2022-12-11T10:58:24.090Z,25.00
2022-12-11T11:01:15.401Z,31.40
2022-12-11T11:04:34.738Z,21.75
2022-12-11T11:07:17.017Z,35.72
2022-12-11T11:09:43.831Z,17.98
2022-12-11T11:12:59.832Z,22.15
2022-12-11T11:15:29.227Z,23.88
2022-12-11T11:18:00.575Z,21.70
2022-12-11T11:20:30.075Z,23.27
2022-12-11T11:23:00.198Z,23.50
2022-12-11T11:25:29.408Z,34.53
2022-12-11T11:28:02.433Z,22.25
2022-12-11T11:30:33.971Z,23.00
2022-12-11T11:33:13.241Z,25.57
2022-12-11T11:35:45.644Z,21.85
2022-12-11T11:38:12.735Z,20.42
2022-12-11T11:41:14.713Z,21.92
2022-12-11T11:43:55.283Z,24.58
2022-12-11T11:46:24.498Z,22.77
2022-12-11T11:49:02.658Z,23.10
2022-12-11T11:51:37.003Z,21.33
2022-12-11T11:54:25.337Z,27.27
2022-12-11T11:56:55.757Z,24.52
2022-12-11T11:59:34.713Z,22.02
2022-12-11T12:02:01.612Z,24.48
2022-12-11T12:04:33.966Z,26.55
2022-12-11T12:07:23.748Z,32.90
2022-12-11T12:10:02.735Z,17.08
2022-12-11T12:12:38.276Z,26.90
2022-12-11T12:15:04.970Z,24.13
2022-12-11T12:17:36.213Z,22.85
2022-12-11T12:20:41.139Z,21.60
2022-12-11T12:23:25.898Z,26.75
2022-12-11T12:26:04.556Z,21.70
2022-12-11T12:28:38.261Z,20.10
2022-12-11T12:31:13.429Z,20.60
2022-12-11T12:33:43.291Z,23.08
2022-12-11T12:36:33.275Z,24.70
2022-12-11T12:39:01.832Z,25.90
2022-12-11T12:41:42.319Z,29.42
2022-12-11T12:44:21.725Z,24.10
2022-12-11T12:46:59.629Z,25.60
2022-12-11T12:49:57.412Z,24.50
2022-12-11T12:52:36.867Z,31.75
2022-12-11T12:55:14.194Z,24.00
2022-12-11T12:58:05.581Z,24.50
2022-12-11T13:00:41.467Z,28.38
2022-12-11T13:03:16.038Z,28.60
2022-12-11T13:05:45.929Z,27.33
2022-12-11T13:08:13.565Z,29.50
2022-12-11T13:10:43.353Z,23.33
2022-12-11T13:13:38.285Z,26.50
2022-12-11T13:16:25.677Z,27.65
2022-12-11T13:18:53.427Z,26.08
2022-12-11T13:21:40.072Z,32.55
2022-12-11T13:24:16.545Z,28.77
2022-12-11T13:26:44.672Z,27.85
2022-12-11T13:29:40.831Z,29.98
2022-12-11T13:32:10.906Z,21.42
2022-12-11T13:34:40.536Z,39.78
2022-12-11T13:37:21.518Z,36.83
2022-12-11T13:39:48.366Z,25.67
2022-12-11T13:42:31.577Z,31.27
2022-12-11T13:44:58.827Z,31.13
2022-12-11T13:47:26.614Z,30.23
2022-12-11T13:49:59.807Z,58.17
2022-12-11T13:52:27.673Z,35.55
2022-12-11T13:54:56.101Z,31.65
2022-12-11T13:57:30.857Z,29.25
2022-12-11T13:59:59.477Z,26.55
2022-12-11T14:02:30.502Z,25.15
2022-12-11T14:05:07.013Z,26.15
2022-12-11T14:07:47.926Z,25.38
2022-12-11T14:10:14.668Z,33.67
2022-12-11T14:13:23.877Z,30.10
2022-12-11T14:15:52.295Z,28.25
2022-12-11T14:18:23.867Z,29.45
2022-12-11T14:20:58.731Z,27.30
2022-12-11T14:23:28.557Z,31.85
2022-12-11T14:25:58.048Z,34.67
2022-12-11T14:28:27.819Z,34.67
2022-12-11T14:31:00.751Z,33.92
2022-12-11T14:33:37.909Z,35.50
2022-12-11T14:36:06.085Z,40.15
2022-12-11T14:38:37.126Z,29.55
2022-12-11T14:41:11.426Z,41.35
2022-12-11T14:43:45.547Z,35.80
2022-12-11T14:46:19.003Z,31.35
2022-12-11T14:49:00.775Z,34.42
2022-12-11T14:51:31.314Z,36.20
2022-12-11T14:53:58.605Z,30.63
2022-12-11T14:56:29.034Z,33.25
2022-12-11T14:59:06.434Z,30.85
2022-12-11T15:01:35.427Z,37.35
2022-12-11T15:04:16.346Z,46.33
2022-12-11T15:06:45.586Z,53.25
2022-12-11T15:09:25.793Z,35.25
2022-12-11T15:11:55.901Z,38.10
2022-12-11T15:14:24.626Z,36.17
2022-12-11T15:16:53.959Z,47.78
2022-12-11T15:19:27.970Z,36.67
2022-12-11T15:21:55.685Z,38.63
2022-12-11T15:24:30.635Z,34.63
2022-12-11T15:26:59.777Z,30.05
2022-12-11T15:29:35.202Z,46.53
2022-12-11T15:32:09.891Z,47.65
2022-12-11T15:34:58.454Z,41.83
2022-12-11T15:37:28.866Z,49.45
2022-12-11T15:39:57.664Z,37.60
2022-12-11T15:42:27.532Z,42.22
2022-12-11T15:44:55.598Z,49.28
2022-12-11T15:47:25.361Z,36.80
2022-12-11T15:49:57.178Z,41.20
2022-12-11T15:52:23.935Z,46.60
2022-12-11T15:54:54.467Z,49.50
2022-12-11T15:57:24.771Z,37.83
2022-12-11T15:59:54.040Z,38.30
2022-12-11T16:02:21.012Z,35.17
2022-12-11T16:04:47.880Z,43.63
2022-12-11T16:07:21.734Z,44.22
2022-12-11T16:09:49.242Z,52.00
2022-12-11T16:12:16.212Z,44.22
2022-12-11T16:14:48.053Z,41.55
2022-12-11T16:17:15.985Z,33.58
2022-12-11T16:19:45.727Z,37.95
2022-12-11T16:22:13.777Z,38.63
2022-12-11T16:24:40.846Z,34.95
2022-12-11T16:27:11.892Z,43.80
2022-12-11T16:29:41.336Z,44.50
2022-12-11T16:32:08.457Z,45.05
2022-12-11T16:34:36.116Z,44.47
2022-12-11T16:37:03.970Z,43.45
2022-12-11T16:39:30.767Z,43.33
2022-12-11T16:41:57.806Z,41.63
2022-12-11T16:44:26.933Z,45.72
2022-12-11T16:46:54.266Z,52.97
2022-12-11T16:49:22.672Z,46.08
2022-12-11T16:51:49.727Z,46.97
2022-12-11T16:54:17.403Z,35.17
2022-12-11T16:56:44.684Z,42.55
2022-12-11T16:59:12.994Z,38.80
2022-12-11T17:01:40.619Z,40.25
2022-12-11T17:04:07.904Z,35.95
2022-12-11T17:06:34.594Z,32.65
2022-12-11T17:09:01.528Z,37.08
2022-12-11T17:11:28.487Z,37.65
2022-12-11T17:14:00.220Z,44.30
2022-12-11T17:16:30.321Z,42.40
2022-12-11T17:18:57.864Z,43.67
2022-12-11T17:21:24.954Z,55.00
2022-12-11T17:23:52.176Z,52.50
2022-12-11T17:26:20.196Z,44.20
2022-12-11T17:28:46.977Z,46.40
2022-12-11T17:31:17.943Z,39.80
2022-12-11T17:33:46.063Z,42.88
2022-12-11T17:36:15.276Z,36.58
2022-12-11T17:38:41.982Z,32.28
2022-12-11T17:41:12.165Z,36.45
2022-12-11T17:43:41.969Z,34.50
2022-12-11T17:46:11.199Z,31.02
2022-12-11T17:48:38.068Z,29.73
2022-12-11T17:51:07.421Z,38.30
2022-12-11T17:53:34.968Z,39.10
2022-12-11T17:56:03.755Z,32.63
2022-12-11T17:58:31.032Z,27.27
2022-12-11T18:00:58.712Z,35.97
2022-12-11T18:03:26.896Z,33.03
2022-12-11T18:05:56.128Z,26.63
2022-12-11T18:08:30.184Z,30.08
2022-12-11T18:11:03.549Z,31.10
2022-12-11T18:13:30.315Z,29.48
2022-12-11T18:16:10.446Z,26.52
2022-12-11T18:18:37.785Z,31.73
2022-12-11T18:21:05.045Z,30.00
2022-12-11T18:23:31.933Z,40.78
2022-12-11T18:25:58.614Z,30.90
2022-12-11T18:28:25.456Z,35.40
2022-12-11T18:30:52.368Z,34.65
2022-12-11T18:33:19.181Z,35.63
2022-12-11T18:35:48.879Z,35.13
2022-12-11T18:38:15.830Z,32.10
2022-12-11T18:40:42.519Z,32.17
2022-12-11T18:43:09.266Z,40.35
2022-12-11T18:45:40.294Z,33.80
2022-12-11T18:48:08.319Z,35.33
2022-12-11T18:50:35.528Z,32.95
2022-12-11T18:53:02.613Z,29.85
2022-12-11T18:55:29.427Z,33.70
2022-12-11T18:57:56.090Z,34.72
2022-12-11T19:00:23.237Z,31.25
2022-12-11T19:02:52.199Z,28.52
2022-12-11T19:05:19.087Z,29.80
2022-12-11T19:07:45.844Z,31.10
2022-12-11T19:10:12.908Z,27.80
2022-12-11T19:12:39.577Z,21.38
2022-12-11T19:15:06.983Z,27.40
2022-12-11T19:17:33.659Z,30.63
2022-12-11T19:20:18.663Z,29.73
2022-12-11T19:22:48.746Z,27.98
2022-12-11T19:25:15.486Z,26.10
2022-12-11T19:27:42.134Z,28.10
2022-12-11T19:30:10.841Z,25.70
2022-12-11T19:32:37.557Z,26.52
2022-12-11T19:35:04.521Z,22.67
2022-12-11T19:37:31.210Z,29.42
2022-12-11T19:39:57.916Z,25.10
2022-12-11T19:42:26.209Z,27.42
2022-12-11T19:44:52.996Z,17.55
2022-12-11T19:47:19.652Z,19.80
2022-12-11T19:49:48.262Z,18.50
2022-12-11T19:52:15.271Z,21.48
2022-12-11T19:54:42.012Z,17.08
2022-12-11T19:57:08.929Z,18.77
2022-12-11T19:59:35.913Z,19.58
2022-12-11T20:02:02.592Z,18.70
2022-12-11T20:04:29.468Z,16.80
2022-12-11T20:06:56.174Z,20.45
2022-12-11T20:09:24.227Z,16.52
2022-12-11T20:11:50.922Z,19.10
2022-12-11T20:14:23.834Z,18.17
2022-12-11T20:17:10.507Z,16.00
2022-12-11T20:19:38.503Z,17.70
2022-12-11T20:22:05.612Z,17.60
2022-12-11T20:24:32.355Z,15.27
2022-12-11T20:26:59.073Z,17.23
2022-12-11T20:29:26.212Z,17.23
2022-12-11T20:31:53.142Z,18.85
2022-12-11T20:34:20.200Z,16.65
2022-12-11T20:36:51.690Z,17.70
2022-12-11T20:39:18.354Z,15.63
2022-12-11T20:41:45.023Z,17.95
2022-12-11T20:44:11.686Z,17.73
2022-12-11T20:46:38.333Z,17.50
2022-12-11T20:49:08.144Z,13.35
2022-12-11T20:51:34.852Z,12.40
2022-12-11T20:54:01.659Z,17.33
2022-12-11T20:56:30.879Z,15.80
2022-12-11T20:58:59.208Z,17.88
2022-12-11T21:01:28.391Z,14.45
2022-12-11T21:03:55.177Z,12.50
2022-12-11T21:06:31.024Z,12.07
2022-12-11T21:09:00.058Z,14.50
2022-12-11T21:11:26.896Z,17.90
2022-12-11T21:13:53.997Z,17.10
2022-12-11T21:16:21.505Z,14.50
2022-12-11T21:18:48.785Z,13.68
2022-12-11T21:21:16.225Z,13.75
2022-12-11T21:23:43.365Z,13.18
2022-12-11T21:26:10.651Z,16.08
2022-12-11T21:28:37.434Z,15.68
2022-12-11T21:31:07.990Z,14.05
2022-12-11T21:33:35.412Z,16.65
2022-12-11T21:36:02.963Z,13.15
2022-12-11T21:38:30.038Z,15.13
2022-12-11T21:40:56.921Z,15.13
2022-12-11T21:43:24.763Z,14.07
2022-12-11T21:46:00.862Z,14.13
2022-12-11T21:48:28.523Z,14.38
2022-12-11T21:50:55.232Z,17.10
2022-12-11T21:53:21.928Z,24.60
2022-12-11T21:55:48.678Z,19.67
2022-12-11T21:58:15.680Z,18.48
2022-12-11T22:00:42.405Z,17.27
2022-12-11T22:03:09.315Z,12.27
2022-12-11T22:05:36.081Z,16.10
2022-12-11T22:08:02.944Z,16.27
2022-12-11T22:10:30.080Z,15.82
2022-12-11T22:12:56.806Z,16.40
2022-12-11T22:15:23.817Z,16.17
2022-12-11T22:17:50.631Z,12.05
2022-12-11T22:20:18.187Z,16.17
2022-12-11T22:22:45.111Z,16.83
2022-12-11T22:25:12.155Z,14.68
2022-12-11T22:27:39.147Z,18.05
2022-12-11T22:30:06.512Z,14.85
2022-12-11T22:32:33.242Z,15.18
2022-12-11T22:34:59.942Z,16.77
2022-12-11T22:37:26.673Z,12.38
2022-12-11T22:39:53.500Z,18.77
2022-12-11T22:42:20.321Z,18.02
2022-12-11T22:44:47.053Z,15.68
2022-12-11T22:47:13.854Z,29.85
2022-12-11T22:49:40.600Z,17.60
2022-12-11T22:52:07.341Z,21.40
2022-12-11T22:54:34.066Z,18.52
2022-12-11T22:57:01.431Z,15.18
2022-12-11T22:59:28.404Z,14.10
2022-12-11T23:01:55.279Z,14.80
2022-12-11T23:04:22.051Z,21.02
2022-12-11T23:06:48.816Z,19.30
2022-12-11T23:09:15.696Z,15.15
2022-12-11T23:11:42.851Z,15.55
2022-12-11T23:14:14.402Z,19.85
2022-12-11T23:16:41.783Z,11.67
2022-12-11T23:19:09.069Z,22.65
2022-12-11T23:21:35.845Z,13.02
2022-12-11T23:24:03.995Z,17.23
2022-12-11T23:26:31.313Z,12.43
2022-12-11T23:28:59.265Z,15.77
2022-12-11T23:31:27.956Z,11.45
2022-12-11T23:33:54.731Z,10.88
2022-12-11T23:36:21.665Z,10.23
2022-12-11T23:38:54.377Z,8.88
2022-12-11T23:41:22.500Z,10.73
2022-12-11T23:43:49.250Z,12.07
2022-12-11T23:46:21.424Z,6.32
2022-12-11T23:48:48.658Z,9.70
2022-12-11T23:51:18.278Z,8.60
2022-12-11T23:53:45.729Z,9.38
2022-12-11T23:56:16.144Z,7.93
2022-12-11T23:58:43.237Z,10.63
